createdAt,value
2022-12-11T06:57:23.626Z,95618.59
2022-12-11T07:09:40.329Z,95629.19
2022-12-11T07:12:08.250Z,95631.44
2022-12-11T07:14:36.145Z,95627.56
2022-12-11T07:17:03.965Z,95625.00
2022-12-11T07:19:31.597Z,95624.72
2022-12-11T07:21:59.295Z,95618.22
2022-12-11T07:24:27.153Z,95608.72
2022-12-11T07:26:55.157Z,95603.84
2022-12-11T07:29:22.766Z,95601.56
2022-12-11T07:31:50.776Z,95603.88
2022-12-11T07:34:18.521Z,95601.56
2022-12-11T07:36:46.326Z,95596.53
2022-12-11T07:39:14.162Z,95593.59
2022-12-11T07:41:42.051Z,95605.94
2022-12-11T07:44:11.834Z,95615.19
2022-12-11T07:46:39.801Z,95618.28
2022-12-11T07:49:07.403Z,95632.97
2022-12-11T07:51:36.007Z,95645.25
2022-12-11T07:54:08.636Z,95658.66
2022-12-11T07:56:36.646Z,95666.53
2022-12-11T07:59:04.926Z,95670.94
2022-12-11T08:01:36.631Z,95685.28
2022-12-11T08:04:08.114Z,95689.69
2022-12-11T08:06:37.275Z,95689.75
2022-12-11T08:09:06.453Z,95688.41
2022-12-11T08:11:34.351Z,95695.63
2022-12-11T08:14:03.344Z,95690.53
2022-12-11T08:16:31.083Z,95687.13
2022-12-11T08:18:59.019Z,95700.00
2022-12-11T08:21:27.439Z,95695.00
2022-12-11T08:23:55.284Z,95709.13
2022-12-11T08:26:30.414Z,95703.34
2022-12-11T08:28:58.352Z,95710.31
2022-12-11T08:31:26.077Z,95711.13
2022-12-11T08:33:55.395Z,95716.47
2022-12-11T08:36:23.262Z,95705.63
2022-12-11T08:38:51.151Z,95715.53
2022-12-11T08:41:26.773Z,95711.47
2022-12-11T08:43:55.445Z,95720.72
2022-12-11T08:46:25.315Z,95710.34
2022-12-11T08:48:53.281Z,95711.13
2022-12-11T08:51:23.602Z,95711.59
2022-12-11T08:53:51.500Z,95709.47
2022-12-11T08:56:20.252Z,95717.28
2022-12-11T08:58:47.970Z,95713.31
2022-12-11T09:01:18.119Z,95715.13
2022-12-11T09:03:46.340Z,95707.28
2022-12-11T09:06:16.227Z,95711.75
2022-12-11T09:08:50.394Z,95703.97
2022-12-11T09:11:22.247Z,95717.22
2022-12-11T09:13:51.047Z,95722.25
2022-12-11T09:16:20.391Z,95711.94
2022-12-11T09:18:48.775Z,95716.25
2022-12-11T09:21:18.076Z,95716.38
2022-12-11T09:23:46.149Z,95716.38
2022-12-11T09:26:15.310Z,95719.00
2022-12-11T09:28:46.747Z,95711.38
2022-12-11T09:31:17.249Z,95705.84
2022-12-11T09:33:45.041Z,95701.78
2022-12-11T09:36:14.007Z,95696.59
2022-12-11T09:38:44.157Z,95697.81
2022-12-11T09:41:23.665Z,95696.84
2022-12-11T09:43:51.567Z,95696.59
2022-12-11T09:46:21.619Z,95701.56
2022-12-11T09:48:53.815Z,95701.81
2022-12-11T09:51:28.831Z,95698.19
2022-12-11T09:54:00.254Z,95702.44
2022-12-11T09:56:30.730Z,95701.13
2022-12-11T09:59:03.536Z,95692.97
2022-12-11T10:01:37.654Z,95689.63
2022-12-11T10:04:30.194Z,95693.34
2022-12-11T10:07:16.816Z,95690.59
2022-12-11T10:10:01.223Z,95677.78
2022-12-11T10:12:56.280Z,95681.03
2022-12-11T10:15:33.878Z,95687.72
2022-12-11T10:18:05.171Z,95687.72
2022-12-11T10:20:39.553Z,95702.28
2022-12-11T10:23:08.348Z,95698.88
2022-12-11T10:25:37.611Z,95685.72
2022-12-11T10:28:31.747Z,95681.19
2022-12-11T10:31:18.470Z,95687.56
2022-12-11T10:33:52.269Z,95692.25
2022-12-11T10:36:24.252Z,95681.38
2022-12-11T10:38:51.944Z,95669.44
2022-12-11T10:41:40.655Z,95673.16
2022-12-11T10:44:28.484Z,95649.75
2022-12-11T10:47:12.297Z,95659.38
2022-12-11T10:49:56.830Z,95659.91
2022-12-11T10:52:36.192Z,95664.38
2022-12-11T10:55:22.887Z,95663.56
2022-12-11T10:58:06.466Z,95675.09
2022-12-11T11:00:39.874Z,95672.53
2022-12-11T11:03:23.831Z,95672.97
2022-12-11T11:06:15.036Z,95672.34
2022-12-11T11:08:49.276Z,95665.56
2022-12-11T11:11:24.507Z,95679.25
2022-12-11T11:13:53.146Z,95669.97
2022-12-11T11:16:21.257Z,95673.81
2022-12-11T11:18:55.650Z,95674.28
2022-12-11T11:21:24.641Z,95674.34
2022-12-11T11:23:53.676Z,95676.75
2022-12-11T11:26:23.190Z,95677.28
2022-12-11T11:28:54.917Z,95649.41
2022-12-11T11:31:31.124Z,95668.84
2022-12-11T11:34:06.455Z,95663.91
2022-12-11T11:36:35.613Z,95659.44
2022-12-11T11:39:11.606Z,95661.09
2022-12-11T11:42:06.525Z,95663.75
2022-12-11T11:44:37.451Z,95662.66
2022-12-11T11:47:27.665Z,95659.78
2022-12-11T11:50:14.980Z,95657.75
2022-12-11T11:52:52.945Z,95651.25
2022-12-11T11:55:31.673Z,95653.16
2022-12-11T11:58:07.824Z,95645.84
2022-12-11T12:00:35.535Z,95651.13
2022-12-11T12:03:04.304Z,95641.66
2022-12-11T12:05:52.367Z,95659.38
2022-12-11T12:08:36.396Z,95648.06
2022-12-11T12:11:26.080Z,95643.06
2022-12-11T12:14:03.435Z,95642.00
2022-12-11T12:19:30.918Z,95655.47
2022-12-11T12:21:58.758Z,95653.63
2022-12-11T12:24:34.861Z,95667.47
2022-12-11T12:27:50.088Z,95659.13
2022-12-11T12:30:13.260Z,95651.69
2022-12-11T12:32:57.900Z,95663.00
2022-12-11T12:35:38.208Z,95664.72
2022-12-11T12:38:24.824Z,95650.88
2022-12-11T12:41:04.724Z,95656.22
2022-12-11T12:44:17.316Z,95660.22
2022-12-11T12:46:51.105Z,95655.41
2022-12-11T12:49:36.053Z,95651.06
2022-12-11T12:52:04.000Z,95653.75
2022-12-11T12:54:31.884Z,95646.31
2022-12-11T12:57:00.055Z,95662.91
2022-12-11T12:59:27.949Z,95671.31
2022-12-11T13:01:58.006Z,95665.06
2022-12-11T13:04:58.486Z,95658.13
2022-12-11T13:07:30.622Z,95662.66
2022-12-11T13:09:59.948Z,95666.03
2022-12-11T13:12:44.911Z,95669.53
2022-12-11T13:15:35.545Z,95668.84
2022-12-11T13:18:05.288Z,95669.16
2022-12-11T13:20:33.405Z,95671.13
2022-12-11T13:23:07.454Z,95675.63
2022-12-11T13:25:50.208Z,95671.47
2022-12-11T13:28:22.372Z,95681.56
2022-12-11T13:31:05.568Z,95681.16
2022-12-11T13:33:33.538Z,95687.53
2022-12-11T13:36:16.760Z,95689.50
2022-12-11T13:38:49.444Z,95698.97
2022-12-11T13:41:17.029Z,95689.94
2022-12-11T13:43:44.949Z,95691.78
2022-12-11T13:46:12.711Z,95695.38
2022-12-11T13:49:00.985Z,95697.44
2022-12-11T13:51:30.679Z,95697.50
2022-12-11T13:54:16.714Z,95697.28
2022-12-11T13:57:13.155Z,95696.56
2022-12-11T13:59:50.599Z,95699.44
2022-12-11T14:02:21.711Z,95697.63
2022-12-11T14:04:50.915Z,95706.28
2022-12-11T14:07:27.303Z,95702.00
2022-12-11T14:10:22.311Z,95721.91
2022-12-11T14:12:52.080Z,95721.16
2022-12-11T14:15:20.083Z,95719.63
2022-12-11T14:17:52.018Z,95734.34
2022-12-11T14:20:22.789Z,95732.50
2022-12-11T14:22:52.976Z,95732.13
2022-12-11T14:25:25.456Z,95735.56
2022-12-11T14:27:54.470Z,95746.50
2022-12-11T14:30:27.621Z,95758.00
2022-12-11T14:32:58.025Z,95746.03
2022-12-11T14:35:38.728Z,95749.50
2022-12-11T14:38:11.151Z,95741.44
2022-12-11T14:40:42.678Z,95741.41
2022-12-11T14:43:18.501Z,95738.63
2022-12-11T14:45:47.518Z,95741.84
2022-12-11T14:48:31.153Z,95746.66
2022-12-11T14:51:00.153Z,95738.09
2022-12-11T14:53:40.527Z,95739.28
2022-12-11T14:56:09.278Z,95728.03
2022-12-11T14:58:43.159Z,95737.72
2022-12-11T15:01:27.400Z,95737.41
2022-12-11T15:04:14.409Z,95738.22
2022-12-11T15:06:48.454Z,95747.91
2022-12-11T15:09:35.724Z,95748.34
2022-12-11T15:12:19.411Z,95755.88
2022-12-11T15:14:50.663Z,95748.50
2022-12-11T15:17:18.911Z,95745.53
2022-12-11T15:19:54.354Z,95752.94
2022-12-11T15:22:24.692Z,95753.31
2022-12-11T15:24:53.391Z,95750.09
2022-12-11T15:27:23.864Z,95767.59
2022-12-11T15:29:51.712Z,95764.19
2022-12-11T15:32:20.588Z,95764.59
2022-12-11T15:34:56.408Z,95758.53
2022-12-11T15:37:24.092Z,95764.78
2022-12-11T15:39:52.429Z,95761.19
2022-12-11T15:42:26.990Z,95761.38
2022-12-11T15:44:55.619Z,95765.81
2022-12-11T15:47:32.224Z,95760.63
2022-12-11T15:50:18.774Z,95765.47
2022-12-11T15:52:46.726Z,95775.28
2022-12-11T15:55:14.505Z,95760.25
2022-12-11T15:57:53.586Z,95763.84
2022-12-11T16:00:21.932Z,95760.44
2022-12-11T16:02:49.564Z,95774.28
2022-12-11T16:05:17.748Z,95771.28
2022-12-11T16:07:45.406Z,95769.47
2022-12-11T16:10:15.515Z,95762.81
2022-12-11T16:12:43.589Z,95761.78
2022-12-11T16:15:15.249Z,95758.75
2022-12-11T16:17:45.263Z,95755.16
2022-12-11T16:20:13.697Z,95757.19
2022-12-11T16:22:41.342Z,95755.97
2022-12-11T16:25:09.157Z,95764.00
2022-12-11T16:27:37.314Z,95755.63
2022-12-11T16:30:05.354Z,95764.47
2022-12-11T16:32:33.130Z,95768.69
2022-12-11T16:35:01.316Z,95766.25
2022-12-11T16:37:28.985Z,95759.84
2022-12-11T16:39:57.184Z,95762.47
2022-12-11T16:42:24.850Z,95780.50
2022-12-11T16:44:52.443Z,95767.88
2022-12-11T16:47:20.249Z,95767.28
2022-12-11T16:49:47.910Z,95769.47
2022-12-11T16:52:21.793Z,95777.50
